Republica Dominicana

Vuelos de Bajo Nivel

VUELOS DE BAJO NIVEL DESDE SUPERFICIE HASTA 24,000 PIES.

VALIDO DESDE 251200Z ...…………………….…………………HASTA 260000Z 

SALIDA  Y  PUESTA  DEL  SOL  06:16 / 18:59

SANTO DOMINGO FIR...PORT-AU-PRINCE FIR HISPANIOLA: BKN015-020 TOP 050. OCNL VIS 3SM BR TIL 14Z. 17Z SCT025 SCT055.

LYRS OCNL BKN TOP 120. ISOL SHRA. OTLK...VFR. WTRS...SCT025 SCT060. ISOL SHRA S OF ISLAND. OTLK...VFR SHRA. ICE AND FRZLVL...

NO SGFNT ICE EXP OUTSIDE CNVTV ACT.FRZLVL...SRN GLFMEX...140 NW TO 165 SE.CARIB...140 NE TO 175 SW.WRN ATLC...120 NE TO 150 SW...

TURB...NO SGFNT TURB EXP OUTSIDE CNVTV ACT.

 

5,000 FT.

10,000 FT.

18,000 FT.

24,000 FT.

MDSD

0905KT+16ºC

3310KT+09ºC

3320KT-06ºC

3340KT-16ºC

MTPP

0905KT+16ºC

3310KT+09ºC

3320KT-06ºC

3340KT-16ºC

TJSJ

1605KT+15ºC

3305KT+08ºC

3220KT-07ºC

3345KT-17ºC

 

TAF MDPP 251000Z 2512/2612 00000KT 9999 FEW016 BECMG 2513/2515 09012KT=

TAF MDST 251000Z 2512/2612 11010KT 9999 FEW016 BECMG 2512/2513 00000KT=

TAF MDPC 251000Z 2512/2612 09010KT 9999 FEW022 SCT300=

TAF MDBH 251000Z 2512/2612 13008KT 9999 FEW018 SCT300 TEMPO 2512/2515 8000 -SH SCT016=

TAF MDJB 251000Z 2512/2612 00000KT 9999 FEW016 BECMG 2515/2517 18008KT=

TAF MDSD 251000Z 2512/2612 04004KT 9999 FEW016 BECMG 2516/2518 14010KT=

TAF MDLR 251000Z 2512/2612 00000KT 9999 FEW016 BECMG 2513/2515 12010KT=

TAF MDCY 251000Z 2512/2612 00000KT 9999 FEW016 BECMG 2516/2518 09008KT=

 

TAF KMIA 250901Z 2509/2612 VRB05KT P6SM FEW040 FM251400 15010KT P6SM SCT040 FM260100 VRB05KT P6SM SCT035=

TAF KJFK 250858Z 2509/2612 03005KT P6SM BKN200 FM251300 VRB05KT P6SM BKN200 FM251500 18008KT P6SM BKN250 FM251800 18010KT

P6SM SCT100 BKN250 FM260000 16006KT P6SM BKN050 FM260800 14006KT P6SM BKN045 PROB30 2608/2610 -RA OVC030 FM261000 13007KT

P6SM OVC027 PROB30 2610/2611 5SM -SHRA OVC025=

TAF TJSJ 250521Z 2506/2606 VRB04KT P6SM FEW050 FEW070 FM251400 06014KT P6SM SCT030 FM260300 09006KT P6SM SCT025=

TAF MUHA 250500Z 2506/2606 VRB03KT 9000 FEW030 BECMG 2514/2516 16010KT BECMG 2602/2604 VRB03KT=

TAF MUGM 2507/2607 03005KT 9999 SCT020 SCT120 QNH2988INS BECMG 2515/2517 11010G20KT 9999 FEW030 SCT100 QNH2991INS

BECMG 2518/2520 14010KT 9999 FEW025 QNH2988INS BECMG 2523/2601 10010KT 9999 FEW020 QNH2998INS BECMG 2602/2603 04005KT 9999

SCT020 QNH2991INS T24/2510Z T27/2519Z FN00213=

TAF TNCC 251000Z 2512/2612 09013KT 9999 SCT020 PROB30 TEMPO 2512/2516 8000 -SHRA BKN015=

TAF MKJP 250515Z 2506/2606 01004KT 9999 FEW022 BECMG 2514/2516 16012KT PROB40 TEMPO 2518/2524 FEW022 SCT032

BECMG 2602/2604 36004KT=

 

  • ELABORADO POR: LICELOTTE ANTIGUA TAVERAS
  • 25 DE ABRIL DE 2019.-



Tamaño letra

Contraste

Otros